Portada
METAR-TAF:

METAR-TAF

Aeroports :

Aeroport d'Eivissa

Eivissa, Espanya

latitud: 38-52N, longitud: 001-23E, altitud: 7 m

Observació

L'informe es va fer fa 6 hores i 39 minuts, a les 05:00 UTC
Vent calma
Temperatura 22°C
Humitat 83%
Pressió 1016 hPa
Visibilitat 10 km o més
sense núvols per sota de 1500 mi sense presència de cumulonimbus.

METAR: LEIB 210500Z 00000KT CAVOK 22/19 Q1016 NOSIG

Hora: 13:39 (11:39 UTC)

Pronòstic

L'informe es va fer fa 9 hores i 39 minuts, a les 02:00 UTC
Pronòstic vàlid del 21 a les 03 UTC al 22 a les 03 UTC
Vent 5 kt del Nord-Oest
Visibilitat 10 km o més
Escasses núvols a una alçada de 3000 ft
Evolucionant progressivament
l' 21 a les 08 UTC al 21 a les 10 UTC
Vent 8 kt del Sud/Sud-Est
Evolucionant progressivament
l' 21 a les 18 UTC al 21 a les 20 UTC
Vent 3 kt amb direcció variable

TAF: LEIB 210200Z 2103/2203 31005KT 9999 FEW030 TX33/2112Z TN22/2105Z BECMG 2108/2110 15008KT BECMG 2118/2120 VRB03KT

Observacions i pronòstics meteorològics de més de 4000 aeroports (METAR i TAF).

Les estacions disponibles són els punts grocs i vermells al mapa.

Posi el ratolí al punt desitjat per veure el nom de l'estació.

Feu clic per veure les observacions i els pronòstics meteorològics.

Per canviar el mapa: feu clic els botons verds amb una creu de color negre per apropar; al botó verd amb un guió per allunyar la imatge; o en les fletxes verdes per a mapes adjacents.


METAR-TAF: